createdAt,value
2017-09-18T00:01:01.650Z,86.09
2017-09-18T00:03:29.227Z,86.06
2017-09-18T00:05:57.327Z,86.00
2017-09-18T00:08:24.723Z,86.07
2017-09-18T00:10:52.126Z,86.21
2017-09-18T00:13:19.522Z,86.34
2017-09-18T00:15:46.934Z,86.41
2017-09-18T00:18:14.335Z,86.55
2017-09-18T00:20:42.062Z,86.59
2017-09-18T00:23:09.455Z,86.60
2017-09-18T00:25:36.850Z,86.60
2017-09-18T00:28:04.251Z,86.69
2017-09-18T00:30:31.651Z,86.73
2017-09-18T00:32:59.050Z,86.94
2017-09-18T00:35:26.446Z,86.99
2017-09-18T00:37:53.999Z,86.88
2017-09-18T00:40:21.401Z,86.79
2017-09-18T00:42:48.795Z,86.91
2017-09-18T00:45:16.199Z,86.92
2017-09-18T00:47:43.643Z,87.07
2017-09-18T00:50:11.038Z,86.98
2017-09-18T00:52:38.434Z,86.99
2017-09-18T00:55:05.849Z,87.37
2017-09-18T00:57:33.243Z,87.17
2017-09-18T01:00:00.700Z,87.19
2017-09-18T01:02:28.095Z,87.29
2017-09-18T01:04:55.658Z,87.17
2017-09-18T01:07:23.050Z,87.00
2017-09-18T01:09:50.446Z,86.76
2017-09-18T01:12:17.849Z,86.45
2017-09-18T01:14:45.246Z,86.48
2017-09-18T01:17:12.647Z,86.57
2017-09-18T01:19:40.047Z,86.59
2017-09-18T01:22:07.594Z,86.66
2017-09-18T01:24:34.990Z,86.54
2017-09-18T01:27:02.390Z,86.50
2017-09-18T01:29:29.792Z,86.59
2017-09-18T01:31:57.190Z,86.54
2017-09-18T01:34:24.599Z,86.37
2017-09-18T01:36:51.990Z,86.20
2017-09-18T01:39:19.416Z,86.04
2017-09-18T01:41:46.811Z,85.93
2017-09-18T01:44:14.207Z,86.01
2017-09-18T01:46:41.607Z,86.00
2017-09-18T01:49:09.004Z,85.79
2017-09-18T01:51:36.402Z,85.80
2017-09-18T01:54:03.806Z,85.36
2017-09-18T01:56:31.355Z,85.41
2017-09-18T01:58:58.752Z,85.45
2017-09-18T02:01:26.156Z,85.45
2017-09-18T02:03:53.561Z,85.48
2017-09-18T02:06:20.951Z,85.47
2017-09-18T02:08:48.355Z,85.45
2017-09-18T02:11:15.751Z,85.42
2017-09-18T02:13:43.307Z,85.43
2017-09-18T02:16:10.707Z,85.53
2017-09-18T02:18:38.103Z,85.54
2017-09-18T02:21:05.505Z,85.58
2017-09-18T02:23:32.904Z,85.58
2017-09-18T02:26:00.299Z,85.56
2017-09-18T02:28:27.693Z,85.62
2017-09-18T02:30:55.096Z,85.49
2017-09-18T02:33:22.490Z,85.34
2017-09-18T02:35:49.878Z,85.19
2017-09-18T02:38:17.279Z,85.38
2017-09-18T02:40:44.675Z,85.43
2017-09-18T02:43:12.081Z,85.43
2017-09-18T02:45:39.471Z,85.13
2017-09-18T02:48:07.027Z,84.45
2017-09-18T02:50:34.421Z,84.17
2017-09-18T02:53:01.816Z,83.92
2017-09-18T02:55:29.211Z,84.04
2017-09-18T02:57:56.606Z,84.19
2017-09-18T03:00:24.010Z,84.31
2017-09-18T03:02:51.407Z,84.31
2017-09-18T03:05:18.816Z,84.22
2017-09-18T03:07:46.214Z,84.16
2017-09-18T03:10:13.607Z,83.68
2017-09-18T03:12:41.006Z,82.93
2017-09-18T03:15:08.412Z,82.51
2017-09-18T03:17:35.795Z,82.75
2017-09-18T03:20:03.196Z,82.90
2017-09-18T03:22:30.586Z,83.05
2017-09-18T03:24:57.984Z,83.16
2017-09-18T03:27:25.383Z,83.35
2017-09-18T03:29:52.775Z,83.50
2017-09-18T03:32:20.171Z,83.54
2017-09-18T03:34:47.570Z,83.61
2017-09-18T03:37:14.979Z,83.56
2017-09-18T03:39:42.374Z,83.39
2017-09-18T03:42:09.777Z,83.38
2017-09-18T03:44:37.175Z,83.52
2017-09-18T03:47:04.567Z,83.56
2017-09-18T03:49:31.970Z,83.58
2017-09-18T03:51:59.363Z,83.49
2017-09-18T03:54:26.755Z,83.54
2017-09-18T03:56:54.150Z,82.92
2017-09-18T03:59:21.547Z,83.07
2017-09-18T04:01:48.971Z,82.72
2017-09-18T04:04:16.358Z,82.62
2017-09-18T04:06:43.746Z,82.57
2017-09-18T04:09:11.146Z,82.48
2017-09-18T04:11:38.539Z,82.84
2017-09-18T04:14:05.935Z,83.21
2017-09-18T04:16:33.318Z,83.38
2017-09-18T04:19:00.863Z,83.61
2017-09-18T04:21:28.264Z,83.82
2017-09-18T04:23:55.650Z,83.75
2017-09-18T04:26:23.053Z,83.94
2017-09-18T04:28:50.435Z,84.02
2017-09-18T04:31:17.834Z,84.35
2017-09-18T04:33:45.219Z,84.56
2017-09-18T04:36:12.630Z,84.62
2017-09-18T04:38:40.015Z,84.67
2017-09-18T04:41:07.410Z,84.80
2017-09-18T04:43:34.804Z,84.85
2017-09-18T04:46:02.195Z,84.77
2017-09-18T04:48:29.743Z,84.11
2017-09-18T04:50:57.127Z,84.00
2017-09-18T04:53:24.522Z,84.24
2017-09-18T04:55:51.919Z,84.32
2017-09-18T04:58:19.310Z,84.41
2017-09-18T05:00:46.706Z,84.35
2017-09-18T05:03:14.098Z,84.31
2017-09-18T05:05:41.519Z,83.79
2017-09-18T05:08:08.899Z,83.81
2017-09-18T05:10:36.359Z,84.04
2017-09-18T05:13:03.755Z,83.60
2017-09-18T05:15:31.138Z,83.24
2017-09-18T05:17:58.533Z,82.98
2017-09-18T05:20:25.937Z,83.09
2017-09-18T05:22:53.480Z,83.20
2017-09-18T05:25:20.872Z,82.66
2017-09-18T05:27:48.254Z,82.64
2017-09-18T05:30:15.655Z,82.66
2017-09-18T05:32:43.043Z,82.63
2017-09-18T05:35:10.445Z,82.51
2017-09-18T05:37:37.830Z,81.14
2017-09-18T05:40:05.371Z,80.97
2017-09-18T05:42:32.762Z,81.41
2017-09-18T05:45:00.151Z,81.14
2017-09-18T05:47:27.556Z,81.97
2017-09-18T05:49:54.943Z,82.33
2017-09-18T05:52:22.340Z,82.06
2017-09-18T05:54:49.723Z,82.46
2017-09-18T05:57:17.110Z,82.40
2017-09-18T05:59:44.511Z,81.55
2017-09-18T06:02:11.894Z,81.10
2017-09-18T06:04:39.434Z,81.15
2017-09-18T06:07:06.828Z,81.35
2017-09-18T06:09:34.220Z,80.76
2017-09-18T06:12:01.619Z,80.73
2017-09-18T06:14:29.002Z,81.14
2017-09-18T06:16:56.433Z,81.19
2017-09-18T06:19:23.827Z,81.46
2017-09-18T06:21:51.214Z,81.60
2017-09-18T06:24:18.608Z,81.48
2017-09-18T06:26:45.990Z,81.10
2017-09-18T06:29:13.536Z,79.37
2017-09-18T06:31:40.928Z,79.61
2017-09-18T06:34:08.329Z,80.37
2017-09-18T06:36:35.755Z,79.65
2017-09-18T06:39:03.153Z,80.40
2017-09-18T06:41:30.692Z,80.58
2017-09-18T06:43:58.078Z,79.99
2017-09-18T06:46:25.475Z,79.88
2017-09-18T06:48:52.866Z,79.13
2017-09-18T06:51:20.254Z,79.44
2017-09-18T06:53:47.800Z,79.26
2017-09-18T06:56:15.198Z,79.81
2017-09-18T06:58:42.595Z,79.91
2017-09-18T07:01:09.990Z,80.28
2017-09-18T07:03:37.374Z,80.15
2017-09-18T07:06:04.914Z,80.11
2017-09-18T07:08:32.302Z,79.88
2017-09-18T07:10:59.687Z,79.87
2017-09-18T07:13:27.091Z,79.58
2017-09-18T07:15:54.483Z,79.43
2017-09-18T07:18:21.874Z,78.41
2017-09-18T07:20:49.263Z,78.42
2017-09-18T07:23:16.651Z,78.34
2017-09-18T07:25:44.049Z,77.11
2017-09-18T07:28:11.439Z,75.72
2017-09-18T07:30:38.982Z,76.29
2017-09-18T07:33:06.373Z,76.48
2017-09-18T07:35:33.754Z,77.14
2017-09-18T07:38:01.146Z,76.86
2017-09-18T07:40:28.768Z,76.99
2017-09-18T07:42:56.239Z,76.03
2017-09-18T07:45:23.636Z,76.97
2017-09-18T07:47:51.027Z,76.32
2017-09-18T07:50:18.414Z,75.87
2017-09-18T07:52:45.811Z,76.62
2017-09-18T07:55:13.693Z,75.75
2017-09-18T07:57:41.097Z,74.36
2017-09-18T08:00:08.533Z,74.23
2017-09-18T08:02:35.922Z,73.92
2017-09-18T08:05:03.310Z,74.19
2017-09-18T08:07:31.174Z,72.58
2017-09-18T08:09:58.564Z,73.15
2017-09-18T08:12:25.947Z,73.46
2017-09-18T08:14:53.342Z,73.06
2017-09-18T08:17:20.737Z,72.99
2017-09-18T08:19:48.134Z,72.90
2017-09-18T08:22:15.535Z,73.96
2017-09-18T08:24:42.931Z,73.77
2017-09-18T08:27:10.339Z,74.08
2017-09-18T08:29:37.732Z,74.14
2017-09-18T08:32:05.275Z,74.40
2017-09-18T08:34:32.667Z,74.44
2017-09-18T08:37:00.056Z,73.85
2017-09-18T08:39:27.455Z,72.73
2017-09-18T08:41:54.844Z,72.78
2017-09-18T08:44:22.358Z,72.68
2017-09-18T08:46:49.773Z,72.15
2017-09-18T08:49:17.167Z,72.71
2017-09-18T08:51:44.565Z,69.34
2017-09-18T08:54:11.955Z,71.01
2017-09-18T08:56:39.362Z,71.56
2017-09-18T08:59:06.756Z,71.90
2017-09-18T09:01:34.145Z,70.60
2017-09-18T09:04:01.544Z,72.44
2017-09-18T09:06:28.942Z,72.29
2017-09-18T09:08:56.354Z,71.96
2017-09-18T09:11:23.783Z,72.04
2017-09-18T09:13:51.155Z,72.05
2017-09-18T09:16:18.558Z,72.85
2017-09-18T09:18:45.954Z,74.08
2017-09-18T09:21:13.465Z,73.77
2017-09-18T09:23:40.856Z,72.27
2017-09-18T09:26:08.259Z,73.41
2017-09-18T09:28:35.660Z,73.49
2017-09-18T09:31:03.058Z,72.17
2017-09-18T09:33:30.488Z,71.86
2017-09-18T09:35:57.889Z,72.07
2017-09-18T09:38:25.287Z,71.31
2017-09-18T09:40:52.686Z,73.16
2017-09-18T09:43:20.082Z,73.55
2017-09-18T09:45:47.827Z,73.28
2017-09-18T09:48:15.230Z,73.92
2017-09-18T09:50:42.644Z,74.73
2017-09-18T09:53:10.055Z,75.79
2017-09-18T09:55:37.446Z,75.97
2017-09-18T09:58:05.319Z,76.73
2017-09-18T10:00:32.716Z,76.67
2017-09-18T10:03:00.119Z,77.41
2017-09-18T10:05:27.521Z,77.32
2017-09-18T10:07:54.915Z,78.06
2017-09-18T10:10:22.652Z,77.82
2017-09-18T10:12:50.046Z,78.36
2017-09-18T10:15:17.449Z,77.76
2017-09-18T10:17:44.855Z,78.32
2017-09-18T10:20:12.248Z,78.90
2017-09-18T10:22:40.094Z,80.25
2017-09-18T10:25:07.496Z,81.13
2017-09-18T10:27:34.901Z,81.92
2017-09-18T10:30:02.294Z,81.71
2017-09-18T10:32:29.683Z,81.92
2017-09-18T10:34:57.238Z,82.41
2017-09-18T10:37:24.631Z,83.06
2017-09-18T10:39:52.027Z,83.65
2017-09-18T10:42:19.427Z,84.83
2017-09-18T10:44:46.823Z,84.70
2017-09-18T10:47:14.380Z,84.40
2017-09-18T10:49:41.836Z,84.62
2017-09-18T10:52:09.234Z,84.45
2017-09-18T10:54:36.638Z,84.07
2017-09-18T10:57:04.047Z,83.43
2017-09-18T10:59:31.550Z,83.24
2017-09-18T11:01:58.939Z,82.39
2017-09-18T11:04:26.327Z,82.19
2017-09-18T11:06:53.731Z,81.90
2017-09-18T11:09:21.118Z,82.65
2017-09-18T11:11:48.660Z,82.94
2017-09-18T11:14:16.050Z,83.54
2017-09-18T11:16:43.431Z,82.66
2017-09-18T11:19:10.823Z,83.08
2017-09-18T11:21:38.239Z,83.47
2017-09-18T11:24:05.791Z,82.77
2017-09-18T11:26:33.187Z,83.71
2017-09-18T11:29:00.579Z,84.10
2017-09-18T11:31:27.990Z,84.30
2017-09-18T11:33:55.364Z,84.28
2017-09-18T11:36:22.914Z,83.73
2017-09-18T11:38:50.303Z,83.02
2017-09-18T11:41:17.694Z,81.85
2017-09-18T11:43:45.092Z,81.83
2017-09-18T11:46:12.490Z,82.75
2017-09-18T11:48:40.045Z,81.60
2017-09-18T11:51:07.438Z,78.92
2017-09-18T11:53:34.863Z,77.81
2017-09-18T11:56:02.231Z,73.71
2017-09-18T11:58:29.632Z,73.89
2017-09-18T12:00:57.164Z,71.99
2017-09-18T12:03:24.546Z,73.29
2017-09-18T12:05:51.930Z,74.74
2017-09-18T12:08:19.326Z,76.42
2017-09-18T12:10:46.709Z,77.54
2017-09-18T12:13:14.134Z,78.06
2017-09-18T12:15:41.530Z,78.39
2017-09-18T12:18:08.923Z,78.38
2017-09-18T12:20:36.323Z,78.58
2017-09-18T12:23:03.714Z,79.99
2017-09-18T12:25:31.135Z,79.10
2017-09-18T12:27:58.522Z,80.44
2017-09-18T12:30:25.905Z,81.54
2017-09-18T12:32:53.301Z,80.85
2017-09-18T12:35:20.701Z,79.70
2017-09-18T12:37:48.239Z,79.86
2017-09-18T12:40:15.630Z,77.06
2017-09-18T12:42:43.018Z,73.67
2017-09-18T12:45:10.409Z,68.96
2017-09-18T12:47:37.799Z,72.55
2017-09-18T12:50:05.343Z,74.73
2017-09-18T12:52:32.742Z,73.02
2017-09-18T12:55:00.135Z,74.82
2017-09-18T12:57:27.525Z,72.74
2017-09-18T12:59:54.914Z,71.91
2017-09-18T13:02:22.453Z,71.59
2017-09-18T13:04:49.839Z,72.48
2017-09-18T13:07:17.225Z,71.55
2017-09-18T13:09:44.624Z,70.97
2017-09-18T13:12:12.001Z,67.08
2017-09-18T13:14:39.498Z,65.99
2017-09-18T13:17:06.882Z,66.13
2017-09-18T13:19:34.271Z,62.27
2017-09-18T13:22:01.658Z,64.57
2017-09-18T13:24:29.047Z,65.14
2017-09-18T13:26:56.547Z,67.52
2017-09-18T13:29:23.929Z,66.65
2017-09-18T13:31:51.314Z,62.69
2017-09-18T13:34:18.706Z,67.14
2017-09-18T13:36:46.097Z,66.84
2017-09-18T13:39:13.498Z,67.79
2017-09-18T13:41:40.890Z,64.71
2017-09-18T13:44:08.269Z,67.19
2017-09-18T13:46:35.771Z,68.45
2017-09-18T13:49:03.156Z,69.82
2017-09-18T13:51:30.649Z,70.18
2017-09-18T13:53:58.039Z,70.44
2017-09-18T13:56:25.419Z,71.59
2017-09-18T13:58:52.812Z,71.24
2017-09-18T14:01:20.285Z,72.55
2017-09-18T14:03:47.818Z,72.35
2017-09-18T14:06:15.214Z,73.38
2017-09-18T14:08:42.610Z,74.28
2017-09-18T14:11:10.006Z,74.28
2017-09-18T14:13:37.393Z,72.02
2017-09-18T14:16:04.803Z,71.84
2017-09-18T14:18:32.186Z,69.35
2017-09-18T14:20:59.570Z,71.77
2017-09-18T14:23:26.964Z,71.22
2017-09-18T14:25:54.349Z,67.66
2017-09-18T14:28:22.185Z,68.79
2017-09-18T14:30:49.570Z,68.03
2017-09-18T14:33:16.958Z,67.00
2017-09-18T14:35:44.360Z,69.99
2017-09-18T14:38:11.782Z,68.41
2017-09-18T14:40:39.233Z,68.08
2017-09-18T14:43:06.618Z,70.05
2017-09-18T14:45:34.013Z,70.91
2017-09-18T14:48:01.414Z,67.80
2017-09-18T14:50:28.803Z,66.91
2017-09-18T14:52:56.367Z,68.67
2017-09-18T14:55:23.757Z,68.34
2017-09-18T14:57:51.138Z,69.33
2017-09-18T15:00:18.549Z,65.19
2017-09-18T15:02:45.933Z,67.87
2017-09-18T15:05:13.474Z,68.03
2017-09-18T15:07:40.858Z,68.62
2017-09-18T15:10:09.102Z,69.16
2017-09-18T15:12:36.511Z,68.92
2017-09-18T15:15:03.886Z,69.00
2017-09-18T15:17:31.282Z,70.19
2017-09-18T15:19:58.667Z,68.53
2017-09-18T15:22:26.053Z,69.51
2017-09-18T15:24:53.450Z,71.41
2017-09-18T15:27:20.839Z,71.75
2017-09-18T15:29:48.330Z,72.50
2017-09-18T15:32:15.719Z,72.50
2017-09-18T15:34:43.103Z,73.37
2017-09-18T15:37:10.494Z,72.60
2017-09-18T15:39:37.887Z,74.01
2017-09-18T15:42:05.426Z,75.05
2017-09-18T15:44:32.810Z,73.19
2017-09-18T15:47:00.195Z,74.32
2017-09-18T15:49:27.645Z,73.92
2017-09-18T15:51:55.013Z,69.06
2017-09-18T15:54:22.409Z,71.82
2017-09-18T15:56:49.794Z,76.29
2017-09-18T15:59:17.202Z,77.69
2017-09-18T16:01:44.590Z,79.98
2017-09-18T16:04:11.980Z,81.53
2017-09-18T16:06:39.373Z,82.10
2017-09-18T16:09:06.905Z,83.35
2017-09-18T16:11:34.290Z,84.74
2017-09-18T16:14:01.679Z,85.07
2017-09-18T16:16:29.070Z,84.94
2017-09-18T16:18:56.605Z,84.08
2017-09-18T16:21:23.990Z,85.45
2017-09-18T16:23:51.378Z,86.14
2017-09-18T16:26:18.762Z,85.59
2017-09-18T16:28:46.184Z,84.85
2017-09-18T16:31:13.725Z,85.73
2017-09-18T16:33:41.114Z,86.38
2017-09-18T16:36:08.498Z,87.34
2017-09-18T16:38:35.886Z,84.90
2017-09-18T16:41:03.270Z,85.45
2017-09-18T16:43:30.807Z,85.10
2017-09-18T16:45:58.194Z,85.67
2017-09-18T16:48:25.585Z,85.34
2017-09-18T16:50:52.973Z,85.71
2017-09-18T16:53:20.358Z,86.20
2017-09-18T16:55:47.770Z,86.87
2017-09-18T16:58:15.154Z,85.93
2017-09-18T17:00:42.557Z,86.67
2017-09-18T17:03:09.947Z,87.18
2017-09-18T17:05:37.346Z,87.49
2017-09-18T17:08:04.731Z,87.42
2017-09-18T17:10:32.128Z,87.97
2017-09-18T17:12:59.507Z,86.54
2017-09-18T17:15:26.890Z,87.20
2017-09-18T17:17:54.286Z,87.71
2017-09-18T17:20:21.695Z,87.90
2017-09-18T17:22:49.080Z,88.30
2017-09-18T17:25:16.474Z,87.87
2017-09-18T17:27:43.850Z,88.33
2017-09-18T17:30:11.242Z,88.55
2017-09-18T17:32:38.630Z,87.83
2017-09-18T17:35:06.174Z,87.75
2017-09-18T17:37:33.570Z,88.15
2017-09-18T17:40:00.957Z,88.45
2017-09-18T17:42:28.362Z,88.54
2017-09-18T17:44:55.738Z,88.72
2017-09-18T17:47:24.147Z,88.23
2017-09-18T17:49:51.534Z,88.61
2017-09-18T17:52:19.621Z,88.92
2017-09-18T17:54:47.017Z,88.38
2017-09-18T17:57:14.402Z,88.13
2017-09-18T17:59:41.818Z,87.94
2017-09-18T18:02:09.202Z,88.20
2017-09-18T18:04:36.587Z,88.38
2017-09-18T18:07:07.461Z,88.46
2017-09-18T18:09:35.858Z,88.70
2017-09-18T18:12:03.258Z,88.98
2017-09-18T18:14:30.637Z,89.10
2017-09-18T18:16:58.198Z,89.16
2017-09-18T18:19:25.678Z,89.16
2017-09-18T18:21:53.072Z,89.16
2017-09-18T18:24:20.478Z,89.20
2017-09-18T18:26:47.870Z,89.10
2017-09-18T18:29:15.381Z,88.93
2017-09-18T18:31:42.762Z,89.11
2017-09-18T18:34:10.155Z,88.93
2017-09-18T18:36:37.587Z,89.11
2017-09-18T18:39:04.973Z,89.27
2017-09-18T18:41:32.937Z,89.39
2017-09-18T18:44:00.404Z,89.43
2017-09-18T18:46:27.781Z,89.63
2017-09-18T18:48:55.190Z,89.72
2017-09-18T18:51:22.591Z,89.79
2017-09-18T18:53:50.139Z,89.60
2017-09-18T18:56:17.533Z,89.41
2017-09-18T18:58:44.939Z,89.29
2017-09-18T19:01:12.350Z,89.37
2017-09-18T19:03:39.798Z,89.43
2017-09-18T19:06:07.186Z,89.41
2017-09-18T19:08:34.578Z,88.89
2017-09-18T19:11:02.002Z,89.03
2017-09-18T19:13:29.402Z,88.89
2017-09-18T19:15:57.240Z,89.00
2017-09-18T19:18:24.637Z,89.20
2017-09-18T19:20:52.030Z,89.37
2017-09-18T19:23:19.427Z,89.48
2017-09-18T19:25:46.826Z,89.57
2017-09-18T19:28:14.242Z,89.63
2017-09-18T19:30:41.638Z,87.79
2017-09-18T19:33:09.032Z,88.31
2017-09-18T19:35:36.434Z,88.70
2017-09-18T19:38:03.833Z,88.99
2017-09-18T19:40:31.250Z,89.14
2017-09-18T19:42:58.646Z,89.24
2017-09-18T19:45:26.351Z,89.30
2017-09-18T19:47:53.746Z,89.44
2017-09-18T19:50:21.143Z,89.63
2017-09-18T19:52:48.550Z,89.61
2017-09-18T19:55:15.946Z,89.48
2017-09-18T19:57:43.662Z,89.59
2017-09-18T20:00:11.054Z,89.63
2017-09-18T20:02:38.450Z,89.71
2017-09-18T20:05:05.866Z,89.78
2017-09-18T20:07:33.262Z,89.78
2017-09-18T20:10:01.079Z,89.82
2017-09-18T20:12:28.471Z,89.84
2017-09-18T20:14:55.866Z,89.89
2017-09-18T20:17:23.264Z,89.72
2017-09-18T20:19:50.659Z,89.66
2017-09-18T20:22:18.212Z,89.59
2017-09-18T20:24:45.602Z,89.76
2017-09-18T20:27:13.000Z,89.85
2017-09-18T20:29:40.393Z,89.91
2017-09-18T20:32:07.793Z,89.73
2017-09-18T20:34:35.350Z,89.76
2017-09-18T20:37:02.747Z,89.80
2017-09-18T20:39:30.133Z,89.85
2017-09-18T20:41:57.543Z,89.59
2017-09-18T20:44:24.925Z,89.65
2017-09-18T20:46:52.335Z,89.75
2017-09-18T20:49:19.726Z,89.84
2017-09-18T20:51:47.122Z,89.89
2017-09-18T20:54:14.529Z,89.87
2017-09-18T20:56:41.953Z,89.89
2017-09-18T20:59:09.350Z,89.87
2017-09-18T21:01:36.738Z,89.82
2017-09-18T21:04:04.135Z,89.51
2017-09-18T21:06:31.541Z,89.60
2017-09-18T21:08:58.949Z,89.79
2017-09-18T21:11:26.347Z,89.91
2017-09-18T21:13:53.742Z,89.90
2017-09-18T21:16:21.146Z,89.96
2017-09-18T21:18:48.538Z,90.01
2017-09-18T21:21:16.082Z,89.91
2017-09-18T21:23:43.474Z,90.04
2017-09-18T21:26:10.882Z,90.00
2017-09-18T21:28:38.282Z,89.86
2017-09-18T21:31:05.669Z,89.92
2017-09-18T21:33:33.214Z,89.87
2017-09-18T21:36:00.608Z,89.91
2017-09-18T21:38:27.994Z,89.96
2017-09-18T21:40:55.391Z,90.03
2017-09-18T21:43:22.791Z,90.09
2017-09-18T21:45:50.582Z,90.11
2017-09-18T21:48:17.969Z,90.11
2017-09-18T21:50:45.362Z,90.07
2017-09-18T21:53:12.758Z,90.10
2017-09-18T21:55:40.162Z,89.72
2017-09-18T21:58:07.697Z,89.50
2017-09-18T22:00:35.095Z,89.22
2017-09-18T22:03:02.485Z,88.73
2017-09-18T22:05:29.895Z,89.09
2017-09-18T22:07:57.282Z,89.44
2017-09-18T22:10:24.685Z,89.60
2017-09-18T22:12:52.110Z,89.71
2017-09-18T22:15:19.503Z,89.60
2017-09-18T22:17:46.894Z,89.20
2017-09-18T22:20:14.291Z,89.29
2017-09-18T22:22:42.026Z,89.39
2017-09-18T22:25:09.422Z,89.41
2017-09-18T22:27:36.822Z,89.61
2017-09-18T22:30:04.221Z,89.37
2017-09-18T22:32:31.615Z,89.68
2017-09-18T22:34:59.168Z,89.88
2017-09-18T22:37:26.551Z,90.03
2017-09-18T22:39:53.938Z,90.02
2017-09-18T22:42:21.704Z,90.19
2017-09-18T22:44:49.089Z,90.13
2017-09-18T22:47:16.638Z,90.09
2017-09-18T22:49:44.034Z,90.19
2017-09-18T22:52:11.430Z,89.90
2017-09-18T22:54:38.825Z,89.80
2017-09-18T22:57:06.227Z,89.92
2017-09-18T22:59:33.626Z,90.00
2017-09-18T23:02:01.026Z,90.12
2017-09-18T23:04:28.418Z,90.14
2017-09-18T23:06:55.818Z,90.11
2017-09-18T23:09:23.218Z,89.87
2017-09-18T23:11:50.630Z,89.95
2017-09-18T23:14:18.026Z,90.07
2017-09-18T23:16:45.426Z,89.97
2017-09-18T23:19:12.828Z,89.94
2017-09-18T23:21:40.222Z,89.74
2017-09-18T23:24:07.764Z,89.17
2017-09-18T23:26:35.166Z,89.37
2017-09-18T23:29:02.558Z,89.19
2017-09-18T23:31:29.951Z,88.83
2017-09-18T23:33:57.342Z,89.11
2017-09-18T23:36:24.752Z,89.34
2017-09-18T23:38:52.149Z,89.52
2017-09-18T23:41:19.538Z,88.89
2017-09-18T23:43:46.936Z,88.69
2017-09-18T23:46:14.330Z,89.23
2017-09-18T23:48:41.752Z,89.24
2017-09-18T23:51:09.150Z,89.56
2017-09-18T23:53:36.534Z,89.60
2017-09-18T23:56:03.930Z,89.34
2017-09-18T23:58:31.325Z,89.08
